Free Trial

Black Stone Minerals (BSM) Institutional Ownership

Black Stone Minerals logo
$13.69 -0.55 (-3.88%)
Closing price 03:59 PM Eastern
Extended Trading
$13.80 +0.11 (+0.82%)
As of 07:55 PM Eastern
Extended trading is trading that happens on electronic markets outside of regular trading hours. This is a fair market value extended hours price provided by Massive. Learn more.

Institutional Ownership Changes (13F Filings) for Black Stone Minerals (NYSE:BSM)

Current
Institutional Ownership
Percentage
14.49%
Number of
Institutional Buyers
(last 12 months)
97
Total
Institutional Inflows
(last 12 months)
$308.94M
Number of
Institutional Sellers
(last 12 months)
59
Total
Institutional Outflows
(last 12 months)
$52.97M
Get BSM Insider Trade Alerts

Want to know when executives and insiders are buying or selling Black Stone Minerals stock? Sign up for InsiderTrades.com's daily newsletter to get the latest insider transactions delivered to your inbox daily.

SMS is currently available in Australia, Belgium, Canada, France, Germany, Ireland, Italy, New Zealand, the Netherlands, Singapore, South Africa, Spain, Switzerland, the United Kingdom, and the United States. By entering your phone number and clicking the sign-up button, you agree to receive periodic text messages from MarketBeat at the phone number you submitted, including texts that may be sent using an automatic telephone dialing system. Message and data rates may apply. Message frequency will vary. Messages will consist of stock alerts, news stories, and partner advertisements/offers. Consent is not a condition of the purchase of any goods or services. Text HELP for help/customer support. Unsubscribe at any time by replying "STOP" to any text message that you receive from MarketBeat or by visiting our mailing preferences page. Read our full terms of service and privacy policy.
Skip Chart & View Institutional Buying and Selling Data

BSM Institutional Buying and Selling by Quarter

Black Stone Minerals Major Shareholders & Ownership History

Reporting DateMajor Shareholder NameShares HeldMarket Value% of PortfolioQuarterly Change in SharesOwnership in CompanyDetails
4/30/2026 Summit Securities Group LLC5,466$83K0.0%N/A0.003%
4/23/2026 GraniteShares Advisors LLC179,254$2.71M2.0%-10.3%0.084%
4/22/2026 Nicholson Meyer Capital Management Inc.13,141$199K0.2%-10.5%0.006%
4/21/2026 Penn Davis Mcfarland Inc.1,959,588$29.63M2.9%-0.4%0.923%
4/18/2026 BCS Wealth Management18,297$277K0.1%-49.1%0.009%
4/17/2026 Novare Capital Management LLC18,200$275K0.0%+26.4%0.009%
4/16/2026 Vaughan Nelson Investment Management L.P.4,000$60K0.0%-28.6%0.002%
3/9/2026Corient Private Wealth LLC207,367$2.76M0.0%+140.2%0.098%
2/26/2026Aristides Capital LLC35,516$472K0.1%+3.3%0.017%
2/20/2026Sunbelt Securities Inc.19,781$263K0.0%-8.3%0.009%
2/19/2026Invesco Ltd.73,302$974K0.0%-21.6%0.035%
2/19/2026Rare Wolf Capital LLC72,830$968K0.6%N/A0.034%
2/19/2026Corient Private Wealth LLC207,367$2.76M0.0%+140.2%0.098%
2/18/2026Vident Advisory LLC55,687$740K0.0%-14.4%0.026%
2/18/2026Beacon Pointe Advisors LLC79,792$1.06M0.0%+5.3%0.038%
2/18/2026EP Wealth Advisors LLC12,039$160K0.0%N/A0.006%
2/18/2026Garton & Associates Financial Advisors LLC3,210$43K0.0%N/A0.002%
2/17/2026Cetera Investment Advisers30,564$406K0.0%-8.2%0.014%
2/17/2026Jump Financial LLC165,612$2.20M0.0%+5.6%0.078%
2/17/2026Osaic Holdings Inc.22,843$304K0.0%-31.3%0.011%
2/17/2026Advisory Services Network LLC43,227$574K0.0%-10.6%0.020%
2/17/2026Royal Bank of Canada120,919$1.61M0.0%-12.7%0.057%
2/16/2026Saber Capital Managment LLC631,222$8.39M7.0%N/A0.298%
2/16/2026Mariner LLC26,289$349K0.0%+86.7%0.012%
2/16/2026Barclays PLC3,388$45K0.0%-48.0%0.002%
2/16/2026Brown Advisory Inc.878,003$11.67M0.0%-1.0%0.414%
2/13/2026 Kestra Advisory Services LLC6,439$86K0.0%N/A0.003%
2/13/2026Stifel Financial Corp161,587$2.15M0.0%+6.3%0.076%
2/13/2026Morgan Stanley7,107,673$94.46M0.0%+57.1%3.355%
2/13/2026First Trust Advisors LP284,180$3.78M0.0%-31.7%0.134%
2/13/2026Ausdal Financial Partners Inc.18,395$244K0.0%N/A0.009%
2/13/2026Wells Fargo & Company MN361,303$4.80M0.0%+80.6%0.171%
2/13/2026Hyperion Capital Advisors LP27,222$362K0.2%N/A0.013%
2/12/2026Fiduciary Group LLC18,730$249K0.0%-30.7%0.009%
2/12/2026 Advocate Investing Services LLC43,763$582K0.5%N/A0.021%
2/12/2026HRT Financial LP201,087$2.67M0.0%+188.9%0.095%
2/12/2026Aristides Capital LLC35,516$472K0.1%+3.3%0.017%
2/12/2026Annandale Capital LLC12,911$172K0.0%-10.2%0.006%
2/12/2026CIBC Private Wealth Group LLC164,140$2.18M0.0%+10.5%0.077%
2/11/2026Horizon Kinetics Asset Management LLC151,238$2.01M0.0%-4.7%0.071%
2/11/2026Cerity Partners OCIO LLC24,112$320K0.0%+15,557.1%0.011%
2/11/2026LPL Financial LLC176,817$2.35M0.0%+6.1%0.083%
2/11/2026Franklin Resources Inc.63,214$840K0.0%-5.7%0.030%
2/11/2026ING Groep NV728,600$9.68M0.1%+42.9%0.344%
2/10/2026Lido Advisors LLC10,083$134K0.0%N/A0.005%
2/10/2026Goldman Sachs Group Inc.16,294$217K0.0%N/A0.008%
2/10/2026Fiducient Advisors LLC242,548$3.22M0.4%-49.2%0.114%
2/10/2026Lummis Asset Management LP343,043$4.51M2.7%+0.7%0.162%
2/10/2026 Savant Capital LLC89,056$1.18M0.0%-2.4%0.042%
2/10/2026Moors & Cabot Inc.61,700$820K0.0%-1.6%0.029%
2/6/2026Americana Partners LLC126,427$1.68M0.0%+212.4%0.060%
2/6/2026Mraz Amerine & Associates Inc.133,651$1.78M0.3%-0.8%0.063%
2/6/2026Cullen Frost Bankers Inc.143,484$1.91M0.0%+154.8%0.068%
2/6/2026HighTower Advisors LLC605,067$8.04M0.0%-0.6%0.286%
2/5/2026 Novare Capital Management LLC14,400$191K0.0%N/A0.007%
2/5/2026AlphaCore Capital LLC130,962$1.74M0.0%+40.8%0.062%
2/3/2026Investment Management Associates Inc. ADV1,902,421$25.28M7.0%-1.7%0.898%
2/3/2026MGO One Seven LLC26,792$356K0.0%N/A0.013%
2/3/2026Tweedy Browne Co LLC49,829$662K0.1%+16.7%0.024%
2/2/2026 LMG Wealth Partners LLC101,824$1.35M0.3%-24.7%0.048%
1/30/2026Pekin Hardy Strauss Inc.26,350$350K0.0%+50.1%0.012%
1/29/2026UBS Group AG613,105$8.15M0.0%+9.3%0.289%
1/29/2026 Concurrent Investment Advisors LLC20,427$271K0.0%N/A0.010%
1/28/2026 WMG Financial Advisors LLC16,750$223K0.1%+6.3%0.008%
1/27/2026Evergreen Capital Management LLC199,475$2.65M0.1%-8.8%0.094%
1/27/2026 GraniteShares Advisors LLC199,774$2.66M1.6%-5.1%0.094%
1/27/2026 Autumn Glory Partners LLC13,000$173K0.1%-56.1%0.006%
1/27/2026 Forum Financial Management LP300,000$3.99M0.1%N/A0.142%
1/26/2026 Northwestern University1,086,025$15.67M14.8%N/A0.513%
1/26/2026 BCS Wealth Management35,922$477K0.0%+104.1%0.017%
1/23/2026 Farther Finance Advisors LLC2,375$32K0.0%+61.0%0.001%
1/21/2026 Flagship Harbor Advisors LLC18,609$247K0.0%-8.8%0.009%
1/21/2026Newbridge Financial Services Group Inc.4,943$66K0.0%+65.8%0.002%
1/20/2026 GraniteShares Advisors LLC199,774$2.66M2.3%-5.1%0.094%
1/16/2026 Penn Davis Mcfarland Inc.1,967,467$26.15M2.5%+2.5%0.929%
1/15/2026 Spirit of America Management Corp NY37,999$505K0.1%-53.1%0.018%
1/14/2026 Redhawk Wealth Advisors Inc.15,885$211K0.0%+39.1%0.007%
1/14/2026 Cypress Wealth Services LLC19,662$261K0.0%-8.3%0.009%
1/14/2026 Exchange Traded Concepts LLC49,829$662K0.0%+16.7%0.024%
1/13/2026 LongView Wealth Management10,440$146K0.0%-8.4%0.005%
1/12/2026 Moody National Bank Trust Division20,221$269K0.0%+5.7%0.010%
1/12/2026Kempner Capital Management Inc.439,295$6.19M5.8%-24.5%0.207%
1/6/2026 Doliver Advisors LP35,024$465K0.1%+2.5%0.017%
11/24/2025CIBC Private Wealth Group LLC148,542$1.95M0.0%+18.6%0.070%
11/21/2025CIBC Bancorp USA Inc.267,273$3.51M0.0%N/A0.126%
11/20/2025Tweedy Browne Co LLC42,701$561K0.0%+104.8%0.020%
11/17/2025MIRAE ASSET GLOBAL ETFS HOLDINGS Ltd.34,413$452K0.0%-96.4%0.016%
11/17/2025Fayez Sarofim & Co539,351$7.09M0.0%+4.7%0.255%
11/17/2025Epacria Capital Partners LLC580,716$7.63M6.2%+0.4%0.274%
11/17/2025Bank of America Corp DE2,600,182$34.17M0.0%+2.2%1.227%
11/14/2025Creative Planning12,822$168K0.0%-6.3%0.006%
11/14/2025Ancora Advisors LLC38,360$504K0.0%-8.4%0.018%
11/14/2025Raymond James Financial Inc.173,111$2.28M0.0%-34.3%0.082%
11/14/2025Vident Advisory LLC65,052$855K0.0%N/A0.031%
11/14/2025Cadence Bank26,720$351K0.0%-33.4%0.013%
11/13/2025Jump Financial LLC156,800$2.06M0.0%+66.8%0.074%
11/13/2025UBS Group AG560,688$7.37M0.0%-55.3%0.265%
11/13/2025First Trust Advisors LP415,829$5.46M0.0%+24.6%0.196%
11/12/2025Fiduciary Group LLC27,020$355K0.0%+7.6%0.013%
11/12/2025Rahlfs Capital LLC99,917$1.31M1.0%+18.6%0.047%


BSM Institutional Ownership - Frequently Asked Questions

Who are the largest shareholders of BSM shares?

During the previous two years, 178 institutional investors and hedge funds held shares of Black Stone Minerals. The most heavily invested institutionals were Kingstone Capital Partners Texas LLC ($175.72M), Morgan Stanley ($94.46M), Bank of America Corp DE ($34.17M), Penn Davis Mcfarland Inc. ($29.63M), Investment Management Associates Inc. ADV ($25.28M), Natixis ($19.06M), and Northwestern University ($15.67M).Learn more on Black Stone Minerals' institutional investors.

What percentage of Black Stone Minerals' stock is owned by institutional investors?

14.49% of Black Stone Minerals' stock is owned by institutional investors. Learn more on BSM's institutional investor holdings.

Which institutional investors have been buying Black Stone Minerals' stock?

Of the 145 institutional investors that purchased Black Stone Minerals' stock in the last 24 months, the following investors and hedge funds have bought the highest volume of shares: Kingstone Capital Partners Texas LLC ($13.43M), Morgan Stanley ($2.58M), Northwestern University ($1.09M), MIRAE ASSET GLOBAL ETFS HOLDINGS Ltd. ($963.31K), Fiducient Advisors LLC ($811.47K), Investment Management Associates Inc. ADV ($763.37K), and Saber Capital Managment LLC ($631.22K).

How much institutional buying is happening at Black Stone Minerals?

Institutional investors have bought a total of 23,289,078 shares in the last 24 months. This purchase volume represents approximately $308.94M in transactions.

Which of Black Stone Minerals' major shareholders have been selling company stock?

Of the 59 institutional investors that sold Black Stone Minerals' stock in the last 24 months, the following investors and hedge funds have sold the highest volume of shares: MIRAE ASSET GLOBAL ETFS HOLDINGS Ltd. ($928.90K), UBS Group AG ($693.23K), Fiducient Advisors LLC ($502.88K), Kempner Capital Management Inc. ($320.05K), Spirit of America Management Corp NY ($181K), First Trust Advisors LP ($174.32K), and Eagle Global Advisors LLC ($131.64K).

How much institutional selling is happening at Black Stone Minerals?

Institutional investors have sold a total of 3,972,039 shares in the last 24 months. This volume of shares sold represents approximately $52.97M in transactions.



This page (NYSE:BSM) was last updated on 5/5/2026 by MarketBeat.com Staff.
From Our Partners